createdAt,value
2022-12-26T00:01:48.009Z,96580.44
2022-12-26T00:03:50.275Z,96579.19
2022-12-26T00:05:52.227Z,96573.78
2022-12-26T00:07:53.738Z,96569.22
2022-12-26T00:09:55.559Z,96572.06
2022-12-26T00:11:57.271Z,96564.53
2022-12-26T00:14:03.193Z,96581.75
2022-12-26T00:16:13.306Z,96574.63
2022-12-26T00:18:15.272Z,96586.41
2022-12-26T00:20:16.930Z,96584.44
2022-12-26T00:22:18.765Z,96582.09
2022-12-26T00:24:20.478Z,96570.31
2022-12-26T00:26:24.129Z,96571.50
2022-12-26T00:28:25.845Z,96572.25
2022-12-26T00:30:27.381Z,96566.69
2022-12-26T00:32:28.899Z,96568.44
2022-12-26T00:34:30.889Z,96571.22
2022-12-26T00:36:33.886Z,96576.91
2022-12-26T00:38:36.942Z,96572.47
2022-12-26T00:40:43.594Z,96572.84
2022-12-26T00:42:45.210Z,96568.13
2022-12-26T00:44:46.764Z,96557.59
2022-12-26T00:46:48.764Z,96568.16
2022-12-26T00:48:50.392Z,96575.72
2022-12-26T00:50:52.958Z,96578.00
2022-12-26T00:52:56.945Z,96568.44
2022-12-26T00:54:58.537Z,96564.25
2022-12-26T00:57:00.542Z,96559.63
2022-12-26T00:59:02.275Z,96545.84
2022-12-26T01:01:08.526Z,96542.91
2022-12-26T01:03:11.755Z,96551.63
2022-12-26T01:05:13.338Z,96553.38
2022-12-26T01:07:14.921Z,96556.78
2022-12-26T01:09:16.588Z,96544.41
2022-12-26T01:11:38.369Z,96554.06
2022-12-26T01:13:40.261Z,96556.41
2022-12-26T01:15:48.653Z,96571.03
2022-12-26T01:17:50.546Z,96565.31
2022-12-26T01:19:52.156Z,96569.63
2022-12-26T01:21:53.884Z,96577.03
2022-12-26T01:23:56.180Z,96561.09
2022-12-26T01:26:17.504Z,96571.31
2022-12-26T01:28:19.754Z,96573.13
2022-12-26T01:30:21.497Z,96573.34
2022-12-26T01:32:23.425Z,96567.59
2022-12-26T01:34:24.984Z,96569.50
2022-12-26T01:36:26.616Z,96567.31
2022-12-26T01:38:28.699Z,96557.22
2022-12-26T01:40:31.305Z,96566.22
2022-12-26T01:42:41.347Z,96580.22
2022-12-26T01:45:00.422Z,96575.09
2022-12-26T01:47:02.039Z,96580.56
2022-12-26T01:49:13.459Z,96569.06
2022-12-26T01:51:16.208Z,96564.69
2022-12-26T01:53:31.350Z,96577.09
2022-12-26T01:55:33.097Z,96574.81
2022-12-26T01:57:42.464Z,96581.19
2022-12-26T01:59:46.143Z,96568.94
2022-12-26T02:01:50.710Z,96571.84
2022-12-26T02:04:11.054Z,96571.56
2022-12-26T02:06:14.279Z,96571.69
2022-12-26T02:08:21.460Z,96570.88
2022-12-26T02:10:26.461Z,96578.06
2022-12-26T02:12:36.319Z,96582.66
2022-12-26T02:14:40.666Z,96580.56
2022-12-26T02:16:43.270Z,96584.38
2022-12-26T02:18:45.507Z,96595.19
2022-12-26T02:21:14.800Z,96595.19
2022-12-26T02:23:28.426Z,96587.34
2022-12-26T02:25:51.860Z,96599.00
2022-12-26T02:28:05.902Z,96590.47
2022-12-26T02:30:13.568Z,96590.84
2022-12-26T02:32:24.768Z,96590.13
2022-12-26T02:34:49.869Z,96592.63
2022-12-26T02:37:37.668Z,96592.41
2022-12-26T02:40:10.980Z,96594.63
2022-12-26T02:42:50.042Z,96591.94
2022-12-26T02:45:16.740Z,96593.22
2022-12-26T02:47:34.551Z,96595.75
2022-12-26T02:50:10.255Z,96590.25
2022-12-26T02:52:39.790Z,96592.69
2022-12-26T02:55:21.650Z,96594.50
2022-12-26T02:57:49.336Z,96591.03
2022-12-26T03:00:30.223Z,96585.97
2022-12-26T03:03:23.221Z,96588.28
2022-12-26T03:05:47.051Z,96602.41
2022-12-26T03:08:07.817Z,96597.00
2022-12-26T03:10:55.087Z,96592.78
2022-12-26T03:13:11.347Z,96591.31
2022-12-26T03:15:17.395Z,96590.34
2022-12-26T03:17:30.089Z,96576.09
2022-12-26T03:19:33.599Z,96575.16
2022-12-26T03:21:40.937Z,96583.25
2022-12-26T03:23:46.371Z,96564.94
2022-12-26T03:26:24.779Z,96567.31
2022-12-26T03:28:26.970Z,96580.38
2022-12-26T03:30:48.003Z,96565.22
2022-12-26T03:32:49.635Z,96570.44
2022-12-26T03:34:51.727Z,96593.34
2022-12-26T03:37:23.128Z,96588.78
2022-12-26T03:39:56.098Z,96583.03
2022-12-26T03:42:28.689Z,96576.16
2022-12-26T03:45:15.984Z,96592.88
2022-12-26T03:47:47.918Z,96595.09
2022-12-26T03:50:15.879Z,96590.09
2022-12-26T03:52:52.236Z,96584.41
2022-12-26T03:55:55.194Z,96596.84
2022-12-26T03:58:39.274Z,96611.28
2022-12-26T04:01:01.900Z,96601.16
2022-12-26T04:03:28.859Z,96583.13
2022-12-26T04:05:49.664Z,96589.97
2022-12-26T04:08:18.901Z,96591.72
2022-12-26T04:10:56.964Z,96590.91
2022-12-26T04:13:21.568Z,96574.81
2022-12-26T04:15:49.643Z,96578.56
2022-12-26T04:18:17.214Z,96578.28
2022-12-26T04:20:43.839Z,96588.88
2022-12-26T04:23:11.773Z,96595.13
2022-12-26T04:25:49.741Z,96568.84
2022-12-26T04:28:11.620Z,96574.16
2022-12-26T04:30:33.199Z,96576.59
2022-12-26T04:33:05.200Z,96585.44
2022-12-26T04:35:34.159Z,96586.66
2022-12-26T04:37:59.476Z,96581.25
2022-12-26T04:40:23.022Z,96581.88
2022-12-26T04:42:45.840Z,96591.94
2022-12-26T04:44:50.168Z,96595.13
2022-12-26T04:46:54.084Z,96593.19
2022-12-26T04:49:14.739Z,96598.31
2022-12-26T04:51:16.280Z,96585.31
2022-12-26T04:53:18.843Z,96583.69
2022-12-26T04:55:20.588Z,96594.50
2022-12-26T04:57:22.130Z,96609.63
2022-12-26T04:59:24.209Z,96601.16
2022-12-26T05:01:44.336Z,96605.88
2022-12-26T05:04:05.756Z,96602.53
2022-12-26T05:06:27.762Z,96606.72
2022-12-26T05:09:02.220Z,96609.00
2022-12-26T05:11:03.864Z,96609.06
2022-12-26T05:13:05.415Z,96604.41
2022-12-26T05:15:07.316Z,96599.78
2022-12-26T05:17:28.859Z,96607.47
2022-12-26T05:19:49.151Z,96606.53
2022-12-26T05:22:10.006Z,96607.63
2022-12-26T05:24:30.709Z,96610.06
2022-12-26T05:26:51.634Z,96609.97
2022-12-26T05:29:00.105Z,96609.81
2022-12-26T05:31:02.646Z,96600.66
2022-12-26T05:33:23.255Z,96605.88
2022-12-26T05:35:25.002Z,96610.50
2022-12-26T05:37:26.739Z,96606.78
2022-12-26T05:39:28.325Z,96598.81
2022-12-26T05:41:30.391Z,96597.69
2022-12-26T05:43:32.057Z,96597.00
2022-12-26T05:45:33.945Z,96598.03
2022-12-26T05:47:35.549Z,96590.72
2022-12-26T05:49:37.168Z,96600.66
2022-12-26T05:51:38.816Z,96598.69
2022-12-26T05:53:40.784Z,96597.91
2022-12-26T05:55:42.583Z,96610.06
2022-12-26T05:57:44.156Z,96610.25
2022-12-26T05:59:45.716Z,96610.25
2022-12-26T06:01:47.506Z,96600.13
2022-12-26T06:03:52.312Z,96606.38
2022-12-26T06:05:57.379Z,96611.00
2022-12-26T06:07:58.949Z,96608.88
2022-12-26T06:10:00.837Z,96608.94
2022-12-26T06:12:02.426Z,96622.94
2022-12-26T06:14:04.752Z,96619.69
2022-12-26T06:16:11.868Z,96616.88
2022-12-26T06:18:13.459Z,96605.81
2022-12-26T06:20:15.098Z,96609.97
2022-12-26T06:22:16.592Z,96615.38
2022-12-26T06:24:18.445Z,96620.91
2022-12-26T06:26:20.007Z,96614.53
2022-12-26T06:28:22.920Z,96617.03
2022-12-26T06:30:24.912Z,96602.91
2022-12-26T06:32:28.040Z,96612.13
2022-12-26T06:34:29.882Z,96614.91
2022-12-26T06:36:31.449Z,96627.03
2022-12-26T06:38:33.636Z,96605.38
2022-12-26T06:40:41.712Z,96614.00
2022-12-26T06:42:43.323Z,96618.56
2022-12-26T06:44:44.915Z,96607.06
2022-12-26T06:46:46.499Z,96610.25
2022-12-26T06:48:48.169Z,96614.22
2022-12-26T06:50:50.375Z,96608.09
2022-12-26T06:52:52.184Z,96617.88
2022-12-26T06:54:53.757Z,96632.44
2022-12-26T06:56:55.396Z,96625.22
2022-12-26T06:59:00.462Z,96618.72
2022-12-26T07:01:16.606Z,96619.94
2022-12-26T07:03:18.257Z,96607.06
2022-12-26T07:05:19.849Z,96621.69
2022-12-26T07:07:22.016Z,96625.03
2022-12-26T07:09:28.411Z,96629.84
2022-12-26T07:11:35.936Z,96626.59
2022-12-26T07:13:37.671Z,96630.47
2022-12-26T07:15:39.256Z,96634.50
2022-12-26T07:17:40.965Z,96642.00
2022-12-26T07:19:42.620Z,96644.13
2022-12-26T07:21:44.445Z,96632.28
2022-12-26T07:23:46.007Z,96635.75
2022-12-26T07:25:48.921Z,96642.53
2022-12-26T07:27:53.805Z,96641.47
2022-12-26T07:29:55.453Z,96638.75
2022-12-26T07:31:58.097Z,96639.81
2022-12-26T07:33:59.735Z,96630.09
2022-12-26T07:36:04.665Z,96633.53
2022-12-26T07:38:06.370Z,96624.31
2022-12-26T07:40:08.616Z,96629.25
2022-12-26T07:42:10.614Z,96627.41
2022-12-26T07:44:12.260Z,96640.53
2022-12-26T07:46:13.959Z,96636.31
2022-12-26T07:48:15.585Z,96636.59
2022-12-26T07:50:17.219Z,96642.56
2022-12-26T07:52:19.833Z,96653.38
2022-12-26T07:54:21.458Z,96648.09
2022-12-26T07:56:23.865Z,96642.84
2022-12-26T07:58:26.137Z,96649.00
2022-12-26T08:00:27.661Z,96650.72
2022-12-26T08:02:29.471Z,96645.41
2022-12-26T08:04:33.988Z,96651.94
2022-12-26T08:06:35.520Z,96647.72
2022-12-26T08:08:37.309Z,96648.50
2022-12-26T08:10:38.870Z,96660.81
2022-12-26T08:12:40.599Z,96659.44
2022-12-26T08:14:42.427Z,96645.59
2022-12-26T08:16:49.749Z,96646.81
2022-12-26T08:18:55.161Z,96661.53
2022-12-26T08:20:58.150Z,96654.91
2022-12-26T08:22:59.731Z,96653.63
2022-12-26T08:25:02.497Z,96656.81
2022-12-26T08:27:04.656Z,96654.50
2022-12-26T08:29:06.225Z,96658.00
2022-12-26T08:31:10.290Z,96656.50
2022-12-26T08:33:12.822Z,96651.47
2022-12-26T08:35:14.618Z,96661.41
2022-12-26T08:37:16.322Z,96663.03
2022-12-26T08:39:18.498Z,96670.41
2022-12-26T08:41:20.745Z,96669.59
2022-12-26T08:44:16.525Z,96670.38
2022-12-26T08:45:45.508Z,96667.72
2022-12-26T08:47:47.035Z,96664.97
2022-12-26T08:49:51.355Z,96660.78
2022-12-26T08:51:53.064Z,96670.41
2022-12-26T08:53:57.073Z,96665.00
2022-12-26T08:55:59.483Z,96659.88
2022-12-26T08:58:01.098Z,96661.31
2022-12-26T09:00:04.551Z,96667.84
2022-12-26T09:02:06.848Z,96667.09
2022-12-26T09:04:08.597Z,96652.59
2022-12-26T09:06:12.394Z,96671.13
2022-12-26T09:08:13.913Z,96681.78
2022-12-26T09:10:15.457Z,96693.53
2022-12-26T09:12:17.273Z,96701.19
2022-12-26T09:14:19.458Z,96688.81
2022-12-26T09:16:24.312Z,96700.13
2022-12-26T09:18:25.983Z,96700.38
2022-12-26T09:20:27.584Z,96709.53
2022-12-26T09:22:47.737Z,96711.78
2022-12-26T09:24:49.517Z,96707.50
2022-12-26T09:26:51.340Z,96714.38
2022-12-26T09:28:53.953Z,96723.84
2022-12-26T09:31:00.245Z,96720.31
2022-12-26T09:33:04.021Z,96726.91
2022-12-26T09:35:06.403Z,96731.84
2022-12-26T09:37:07.971Z,96738.78
2022-12-26T09:39:14.199Z,96746.72
2022-12-26T09:41:34.437Z,96736.47
2022-12-26T09:44:15.953Z,96738.78
2022-12-26T09:46:42.620Z,96738.38
2022-12-26T09:48:54.286Z,96747.19
2022-12-26T09:50:56.188Z,96749.88
2022-12-26T09:53:00.645Z,96752.28
2022-12-26T09:55:38.212Z,96745.66
2022-12-26T09:57:45.945Z,96751.78
2022-12-26T09:59:52.555Z,96745.28
2022-12-26T10:01:54.461Z,96729.81
2022-12-26T10:03:58.397Z,96736.00
2022-12-26T10:06:07.105Z,96731.38
2022-12-26T10:08:27.121Z,96733.78
2022-12-26T10:10:51.507Z,96739.38
2022-12-26T10:12:59.240Z,96718.56
2022-12-26T10:15:06.699Z,96733.06
2022-12-26T10:17:37.805Z,96736.97
2022-12-26T10:20:01.246Z,96736.13
2022-12-26T10:22:21.125Z,96742.22
2022-12-26T10:24:26.871Z,96744.63
2022-12-26T10:26:35.243Z,96737.25
2022-12-26T10:28:48.812Z,96749.56
2022-12-26T10:30:52.674Z,96741.91
2022-12-26T10:33:06.552Z,96739.69
2022-12-26T10:35:20.675Z,96741.16
2022-12-26T10:37:22.218Z,96752.72
2022-12-26T10:39:33.621Z,96737.34
2022-12-26T10:41:43.485Z,96732.97
2022-12-26T10:43:45.699Z,96711.91
2022-12-26T10:46:34.265Z,96717.69
2022-12-26T10:48:35.943Z,96728.81
2022-12-26T10:50:40.060Z,96736.13
2022-12-26T10:52:41.684Z,96740.28
2022-12-26T10:54:47.723Z,96758.41
2022-12-26T10:56:51.845Z,96723.69
2022-12-26T10:59:04.123Z,96730.72
2022-12-26T11:01:47.510Z,96740.59
2022-12-26T11:03:57.350Z,96746.09
2022-12-26T11:06:07.984Z,96747.72
2022-12-26T11:08:25.413Z,96751.50
2022-12-26T11:10:29.034Z,96745.13
2022-12-26T11:12:39.901Z,96755.88
2022-12-26T11:14:44.911Z,96746.25
2022-12-26T11:16:49.193Z,96753.75
2022-12-26T11:18:52.302Z,96755.72
2022-12-26T11:20:54.639Z,96760.31
2022-12-26T11:23:12.791Z,96758.13
2022-12-26T11:25:23.230Z,96773.00
2022-12-26T11:27:24.741Z,96767.78
2022-12-26T11:29:27.374Z,96761.84
2022-12-26T11:31:30.910Z,96764.53
2022-12-26T11:33:46.467Z,96756.44
2022-12-26T11:35:52.459Z,96753.44
2022-12-26T11:37:57.631Z,96764.47
2022-12-26T11:40:01.468Z,96762.47
2022-12-26T11:42:18.146Z,96757.16
2022-12-26T11:44:28.004Z,96754.84
2022-12-26T11:46:48.635Z,96762.56
2022-12-26T11:48:51.381Z,96769.31
2022-12-26T11:50:53.768Z,96761.94
2022-12-26T11:52:55.412Z,96775.81
2022-12-26T11:54:57.057Z,96762.16
2022-12-26T11:57:03.987Z,96763.25
2022-12-26T11:59:19.266Z,96769.00
2022-12-26T12:01:20.875Z,96769.94
2022-12-26T12:03:34.158Z,96769.59
2022-12-26T12:05:51.770Z,96760.31
2022-12-26T12:08:25.811Z,96766.41
2022-12-26T12:10:50.562Z,96760.16
2022-12-26T12:13:01.664Z,96774.81
2022-12-26T12:15:21.602Z,96777.94
2022-12-26T12:18:01.644Z,96774.91
2022-12-26T12:20:03.529Z,96777.88
2022-12-26T12:22:44.907Z,96752.91
2022-12-26T12:24:52.750Z,96756.59
2022-12-26T12:27:19.182Z,96756.59
2022-12-26T12:29:28.558Z,96757.06
2022-12-26T12:32:07.206Z,96752.47
2022-12-26T12:34:19.545Z,96754.66
2022-12-26T12:36:36.765Z,96757.38
2022-12-26T12:38:51.448Z,96745.66
2022-12-26T12:41:15.700Z,96739.19
2022-12-26T12:43:24.172Z,96736.88
2022-12-26T12:45:32.649Z,96736.81
2022-12-26T12:48:08.319Z,96739.75
2022-12-26T12:50:35.623Z,96736.81
2022-12-26T12:52:52.193Z,96738.00
2022-12-26T12:55:03.430Z,96733.41
2022-12-26T12:57:25.056Z,96736.91
2022-12-26T12:59:56.154Z,96736.47
2022-12-26T13:02:10.309Z,96734.13
2022-12-26T13:04:21.674Z,96748.56
2022-12-26T13:06:30.487Z,96730.88
2022-12-26T13:08:57.256Z,96737.78
2022-12-26T13:11:03.937Z,96719.50
2022-12-26T13:13:24.667Z,96734.19
2022-12-26T13:15:38.599Z,96738.09
2022-12-26T13:18:03.815Z,96743.88
2022-12-26T13:20:13.101Z,96727.06
2022-12-26T13:22:23.479Z,96730.47
2022-12-26T13:24:38.680Z,96730.50
2022-12-26T13:26:58.011Z,96726.56
2022-12-26T13:29:16.114Z,96725.09
2022-12-26T13:31:18.305Z,96721.25
2022-12-26T13:33:20.184Z,96722.94
2022-12-26T13:35:58.764Z,96722.56
2022-12-26T13:38:00.382Z,96712.38
2022-12-26T13:40:06.867Z,96707.44
2022-12-26T13:42:27.584Z,96706.28
2022-12-26T13:44:29.207Z,96708.88
2022-12-26T13:46:39.906Z,96722.09
2022-12-26T13:48:41.658Z,96711.19
2022-12-26T13:50:56.080Z,96710.75
2022-12-26T13:52:59.042Z,96703.97
2022-12-26T13:55:06.710Z,96708.09
2022-12-26T13:57:34.698Z,96693.84
2022-12-26T13:59:43.848Z,96702.22
2022-12-26T14:02:32.182Z,96702.94
2022-12-26T14:05:19.155Z,96696.44
2022-12-26T14:07:43.115Z,96690.84
2022-12-26T14:09:53.547Z,96693.97
2022-12-26T14:12:11.825Z,96697.31
2022-12-26T14:14:42.346Z,96696.59
2022-12-26T14:17:11.105Z,96693.75
2022-12-26T14:19:44.939Z,96702.63
2022-12-26T14:22:07.133Z,96690.25
2022-12-26T14:24:23.922Z,96686.66
2022-12-26T14:26:39.985Z,96688.56
2022-12-26T14:28:56.699Z,96698.75
2022-12-26T14:31:01.330Z,96693.69
2022-12-26T14:33:21.310Z,96689.38
2022-12-26T14:35:35.707Z,96691.78
2022-12-26T14:37:56.999Z,96699.78
2022-12-26T14:40:31.217Z,96687.72
2022-12-26T14:43:14.087Z,96696.97
2022-12-26T14:45:27.679Z,96678.56
2022-12-26T14:47:39.717Z,96685.50
2022-12-26T14:49:42.254Z,96671.66
2022-12-26T14:51:44.685Z,96679.53
2022-12-26T14:54:22.223Z,96667.25
2022-12-26T14:56:34.479Z,96676.06
2022-12-26T14:58:52.381Z,96676.78
2022-12-26T15:00:54.796Z,96693.41
2022-12-26T15:02:59.238Z,96688.84
2022-12-26T15:05:12.235Z,96694.97
2022-12-26T15:07:35.927Z,96691.78
2022-12-26T15:09:57.487Z,96698.72
2022-12-26T15:12:19.755Z,96690.53
2022-12-26T15:14:52.933Z,96692.50
2022-12-26T15:17:10.203Z,96690.94
2022-12-26T15:19:45.269Z,96690.22
2022-12-26T15:22:21.469Z,96684.16
2022-12-26T15:25:18.608Z,96682.16
2022-12-26T15:27:33.132Z,96677.16
2022-12-26T15:29:55.068Z,96681.31
2022-12-26T15:32:19.794Z,96717.00
2022-12-26T15:34:48.004Z,96716.56
2022-12-26T15:36:56.876Z,96719.44
2022-12-26T15:39:27.248Z,96715.25
2022-12-26T15:41:42.544Z,96722.72
2022-12-26T15:44:18.579Z,96717.72
2022-12-26T15:46:39.816Z,96713.53
2022-12-26T15:48:59.766Z,96722.81
2022-12-26T15:51:09.747Z,96713.56
2022-12-26T15:53:19.881Z,96702.94
2022-12-26T15:55:55.071Z,96708.91
2022-12-26T15:58:24.939Z,96714.44
2022-12-26T16:00:32.805Z,96711.69
2022-12-26T16:02:44.535Z,96711.66
2022-12-26T16:04:53.915Z,96723.31
2022-12-26T16:07:19.776Z,96714.91
2022-12-26T16:09:35.842Z,96711.94
2022-12-26T16:11:58.651Z,96775.81
2022-12-26T16:14:02.953Z,96778.25
2022-12-26T16:16:05.104Z,96809.22
2022-12-26T16:18:18.460Z,96784.44
2022-12-26T16:20:51.402Z,96794.94
2022-12-26T16:22:53.674Z,96779.31
2022-12-26T16:24:55.615Z,96750.16
2022-12-26T16:27:01.295Z,96771.63
2022-12-26T16:29:05.065Z,96750.50
2022-12-26T16:31:07.504Z,96753.97
2022-12-26T16:33:13.976Z,96763.56
2022-12-26T16:35:20.660Z,96729.03
2022-12-26T16:37:25.129Z,96709.84
2022-12-26T16:39:26.677Z,96715.91
2022-12-26T16:41:31.699Z,96716.69
2022-12-26T16:43:36.364Z,96727.44
2022-12-26T16:45:38.551Z,96730.09
2022-12-26T16:47:40.430Z,96724.72
2022-12-26T16:49:43.467Z,96732.81
2022-12-26T16:51:47.613Z,96739.69
2022-12-26T16:53:49.229Z,96746.22
2022-12-26T16:56:15.094Z,96760.47
2022-12-26T16:58:21.879Z,96751.25
2022-12-26T17:00:24.561Z,96757.44
2022-12-26T17:02:32.152Z,96760.13
2022-12-26T17:04:33.988Z,96764.72
2022-12-26T17:06:38.725Z,96771.69
2022-12-26T17:08:43.097Z,96778.94
2022-12-26T17:10:50.327Z,96784.66
2022-12-26T17:12:54.117Z,96796.59
2022-12-26T17:14:58.556Z,96805.06
2022-12-26T17:17:04.270Z,96811.59
2022-12-26T17:19:18.860Z,96817.75
2022-12-26T17:21:32.059Z,96818.88
2022-12-26T17:23:36.482Z,96826.59
2022-12-26T17:25:38.201Z,96825.78
2022-12-26T17:27:39.875Z,96816.56
2022-12-26T17:29:57.410Z,96815.84
2022-12-26T17:31:59.122Z,96803.56
2022-12-26T17:34:06.367Z,96813.16
2022-12-26T17:38:34.924Z,96815.88
2022-12-26T17:40:40.131Z,96829.72
2022-12-26T17:42:54.060Z,96844.69
2022-12-26T17:44:56.780Z,96865.44
2022-12-26T17:47:01.389Z,96853.91
2022-12-26T17:49:03.064Z,96842.41
2022-12-26T17:51:07.288Z,96847.41
2022-12-26T17:53:24.085Z,96855.47
2022-12-26T17:55:27.222Z,96832.03
2022-12-26T17:57:29.798Z,96814.38
2022-12-26T17:59:31.426Z,96799.03
2022-12-26T18:01:33.087Z,96802.09
2022-12-26T18:03:34.725Z,96796.31
2022-12-26T18:05:36.897Z,96803.97
2022-12-26T18:07:39.104Z,96791.72
2022-12-26T18:09:40.903Z,96787.09
2022-12-26T18:11:42.510Z,96781.31
2022-12-26T18:13:44.270Z,96774.75
2022-12-26T18:15:45.999Z,96783.25
2022-12-26T18:17:49.921Z,96790.34
2022-12-26T18:19:51.775Z,96807.50
2022-12-26T18:21:53.442Z,96821.78
2022-12-26T18:23:55.674Z,96829.19
2022-12-26T18:26:00.281Z,96845.69
2022-12-26T18:28:01.901Z,96844.63
2022-12-26T18:30:03.944Z,96848.09
2022-12-26T18:32:19.363Z,96853.88
2022-12-26T18:34:20.985Z,96860.41
2022-12-26T18:36:34.558Z,96865.03
2022-12-26T18:38:36.095Z,96858.50
2022-12-26T18:40:40.873Z,96857.34
2022-12-26T18:42:42.475Z,96865.06
2022-12-26T18:44:44.406Z,96860.84
2022-12-26T18:46:47.099Z,96858.53
2022-12-26T18:48:49.196Z,96867.75
2022-12-26T18:50:50.861Z,96869.69
2022-12-26T18:52:54.252Z,96883.13
2022-12-26T18:54:55.917Z,96883.50
2022-12-26T18:56:57.589Z,96880.06
2022-12-26T18:58:59.151Z,96879.28
2022-12-26T19:01:03.301Z,96898.09
2022-12-26T19:03:04.916Z,96886.97
2022-12-26T19:05:07.226Z,96888.09
2022-12-26T19:07:09.060Z,96877.34
2022-12-26T19:09:11.840Z,96885.03
2022-12-26T19:11:14.470Z,96895.03
2022-12-26T19:13:16.427Z,96881.19
2022-12-26T19:15:18.397Z,96885.81
2022-12-26T19:17:20.027Z,96895.41
2022-12-26T19:19:21.659Z,96893.84
2022-12-26T19:21:23.258Z,96901.16
2022-12-26T19:23:24.813Z,96918.78
2022-12-26T19:25:26.607Z,96926.47
2022-12-26T19:27:28.268Z,96915.72
2022-12-26T19:29:30.293Z,96929.91
2022-12-26T19:31:32.206Z,96922.94
2022-12-26T19:33:33.826Z,96935.22
2022-12-26T19:35:35.387Z,96936.38
2022-12-26T19:37:36.988Z,96935.63
2022-12-26T19:39:38.601Z,96952.44
2022-12-26T19:41:40.423Z,96952.44
2022-12-26T19:43:42.694Z,96962.44
2022-12-26T19:45:45.678Z,96959.41
2022-12-26T19:47:47.484Z,96960.88
2022-12-26T19:49:49.031Z,96966.22
2022-12-26T19:51:50.996Z,96970.78
2022-12-26T19:53:52.725Z,96983.88
2022-12-26T19:55:54.593Z,96980.75
2022-12-26T19:57:56.208Z,96987.97
2022-12-26T19:59:57.780Z,96994.16
2022-12-26T20:01:59.762Z,97002.97
2022-12-26T20:04:03.964Z,97009.78
2022-12-26T20:06:20.069Z,97007.47
2022-12-26T20:08:21.655Z,96997.50
2022-12-26T20:10:23.574Z,97028.03
2022-12-26T20:12:25.138Z,97023.84
2022-12-26T20:14:27.558Z,97031.09
2022-12-26T20:17:03.876Z,97037.25
2022-12-26T20:18:51.729Z,97042.19
2022-12-26T20:20:53.982Z,97051.03
2022-12-26T20:22:55.639Z,97060.84
2022-12-26T20:24:57.182Z,97063.09
2022-12-26T20:26:58.755Z,97066.06
2022-12-26T20:29:02.019Z,97066.09
2022-12-26T20:31:16.075Z,97077.66
2022-12-26T20:33:17.911Z,97072.66
2022-12-26T20:35:19.448Z,97079.53
2022-12-26T20:37:21.030Z,97093.34
2022-12-26T20:39:23.286Z,97083.75
2022-12-26T20:41:26.299Z,97092.22
2022-12-26T20:43:28.145Z,97092.88
2022-12-26T20:45:29.689Z,97091.78
2022-12-26T20:47:31.353Z,97091.41
2022-12-26T20:49:33.565Z,97091.06
2022-12-26T20:51:38.149Z,97097.78
2022-12-26T20:53:39.907Z,97100.13
2022-12-26T20:55:41.536Z,97103.16
2022-12-26T20:57:43.157Z,97090.81
2022-12-26T20:59:44.728Z,97094.78
2022-12-26T21:01:46.450Z,97104.69
2022-12-26T21:03:51.326Z,97122.72
2022-12-26T21:05:53.208Z,97124.97
2022-12-26T21:07:54.810Z,97124.09
2022-12-26T21:09:56.351Z,97137.09
2022-12-26T21:11:57.882Z,97140.91
2022-12-26T21:14:06.070Z,97150.09
2022-12-26T21:16:26.648Z,97150.00
2022-12-26T21:18:28.248Z,97159.31
2022-12-26T21:20:30.434Z,97160.09
2022-12-26T21:22:31.998Z,97146.56
2022-12-26T21:24:33.615Z,97146.09
2022-12-26T21:26:36.639Z,97150.66
2022-12-26T21:28:39.520Z,97153.66
2022-12-26T21:30:45.292Z,97157.56
2022-12-26T21:32:47.360Z,97165.84
2022-12-26T21:34:48.936Z,97165.56
2022-12-26T21:37:09.746Z,97172.38
2022-12-26T21:39:12.257Z,97186.06
2022-12-26T21:41:14.498Z,97189.94
2022-12-26T21:43:16.859Z,97194.72
2022-12-26T21:45:19.630Z,97191.22
2022-12-26T21:47:21.514Z,97191.63
2022-12-26T21:49:23.134Z,97201.84
2022-12-26T21:51:25.763Z,97204.19
2022-12-26T21:53:27.340Z,97211.91
2022-12-26T21:55:31.032Z,97216.50
2022-12-26T21:57:34.153Z,97228.19
2022-12-26T21:59:54.941Z,97236.22
2022-12-26T22:01:56.667Z,97234.66
2022-12-26T22:04:16.862Z,97240.75
2022-12-26T22:06:18.557Z,97238.88
2022-12-26T22:08:20.485Z,97244.13
2022-12-26T22:10:42.214Z,97260.09
2022-12-26T22:12:58.886Z,97270.28
2022-12-26T22:15:00.730Z,97274.97
2022-12-26T22:17:02.342Z,97266.66
2022-12-26T22:19:04.311Z,97287.81
2022-12-26T22:21:10.852Z,97290.03
2022-12-26T22:23:13.459Z,97297.75
2022-12-26T22:25:15.839Z,97304.56
2022-12-26T22:27:17.486Z,97305.16
2022-12-26T22:29:19.050Z,97308.22
2022-12-26T22:31:25.122Z,97312.50
2022-12-26T22:33:27.642Z,97322.66
2022-12-26T22:35:29.183Z,97315.63
2022-12-26T22:37:30.850Z,97323.00
2022-12-26T22:39:32.881Z,97326.13
2022-12-26T22:41:34.692Z,97328.69
2022-12-26T22:43:36.912Z,97334.53
2022-12-26T22:45:41.180Z,97335.31
2022-12-26T22:47:42.951Z,97337.97
2022-12-26T22:49:44.604Z,97334.38
2022-12-26T22:51:46.391Z,97342.47
2022-12-26T22:53:48.319Z,97347.66
2022-12-26T22:55:52.552Z,97350.75
2022-12-26T22:57:55.804Z,97359.56
2022-12-26T23:00:09.665Z,97358.88
2022-12-26T23:02:12.149Z,97367.50
2022-12-26T23:04:14.172Z,97363.78
2022-12-26T23:06:27.609Z,97358.34
2022-12-26T23:08:29.893Z,97363.53
2022-12-26T23:10:32.532Z,97370.75
2022-12-26T23:12:43.277Z,97374.03
2022-12-26T23:14:45.080Z,97371.22
2022-12-26T23:16:57.700Z,97376.28
2022-12-26T23:19:24.257Z,97384.47
2022-12-26T23:21:39.044Z,97382.22
2022-12-26T23:23:40.796Z,97381.19
2022-12-26T23:25:42.547Z,97382.75
2022-12-26T23:28:02.868Z,97392.13
2022-12-26T23:30:17.900Z,97387.31
2022-12-26T23:32:19.511Z,97393.50
2022-12-26T23:34:21.278Z,97402.34
2022-12-26T23:36:22.891Z,97398.28
2022-12-26T23:38:24.589Z,97414.56
2022-12-26T23:40:26.490Z,97416.78
2022-12-26T23:42:28.168Z,97415.69
2022-12-26T23:44:31.057Z,97420.59
2022-12-26T23:46:32.656Z,97428.50
2022-12-26T23:48:34.229Z,97434.28
2022-12-26T23:50:35.803Z,97444.34
2022-12-26T23:52:37.988Z,97445.31
2022-12-26T23:54:39.677Z,97449.13
2022-12-26T23:56:41.219Z,97454.59
2022-12-26T23:58:42.878Z,97447.03
